Time;durP1;ratioP1;P1;durP2;ratioP2;P2;SDS_P1;SDS_P2;PMS_P1;PMS_P2;Temp;Humidity;BMP_temperature;BMP_pressure;BME280_temperature;BME280_humidity;BME280_pressure;Samples;Min_cycle;Max_cycle;Signal;HPM_P1;HPM_P2
2022/04/03 00:00:43;;;;;;;;;;;2.30;99.90;;;0.52;69.96;101793.94;2567372;30;138338;-41
2022/04/03 00:03:16;;;;;;;;;;;2.30;99.90;;;0.48;69.35;101792.50;2570958;30;137261;-42
2022/04/03 00:05:44;;;;;;;;;;;2.30;99.90;;;0.51;70.02;101793.13;2569291;30;138431;-42
2022/04/03 00:08:15;;;;;;;;;;;2.30;99.90;;;0.50;69.86;101793.22;2571106;30;137937;-44
2022/04/03 00:10:46;;;;;;;;;;;2.30;99.90;;;0.48;70.29;101789.81;2567786;30;138971;-42
2022/04/03 00:13:13;;;;;;;;;;;2.30;99.90;;;0.53;70.14;101790.28;2570184;30;137315;-41
2022/04/03 00:15:42;;;;;;;;;;;2.30;99.90;;;0.54;69.18;101792.88;2568429;30;139187;-41
2022/04/03 00:18:10;;;;;;;;;;;2.30;99.90;;;0.60;70.47;101794.22;2571482;30;137218;-46
2022/04/03 00:20:39;;;;;;;;;;;2.30;99.90;;;0.55;69.94;101783.00;2570404;30;138282;-42
2022/04/03 00:23:08;;;;;;;;;;;2.30;99.90;;;0.64;69.38;101786.75;2569368;30;137824;-42
2022/04/03 00:25:37;;;;;;;;;;;2.40;99.90;;;0.61;69.33;101793.25;2569715;30;138399;-42
2022/04/03 00:28:04;;;;;;;;;;;2.40;99.90;;;0.55;69.38;101789.19;2569835;30;137448;-43
2022/04/03 00:30:33;;;;;;;;;;;2.40;99.90;;;0.63;68.49;101793.09;2570746;30;139046;-41
2022/04/03 00:33:04;;;;;;;;;;;2.40;99.90;;;0.64;68.87;101793.00;2568209;30;137356;-41
2022/04/03 00:35:31;;;;;;;;;;;2.40;99.90;;;0.64;68.64;101790.31;2569732;30;138157;-42
2022/04/03 00:37:59;;;;;;;;;;;2.40;99.90;;;0.60;69.34;101794.22;2569429;30;137637;-42
2022/04/03 00:40:26;;;;;;;;;;;2.40;99.90;;;0.66;69.53;101796.41;2571019;30;138307;-41
2022/04/03 00:42:54;;;;;;;;;;;2.40;99.90;;;0.69;68.90;101793.47;2570524;30;137853;-41
2022/04/03 00:45:21;;;;;;;;;;;2.40;99.90;;;0.63;69.09;101802.03;2568940;30;137024;-43
2022/04/03 00:47:52;;;;;;;;;;;2.40;99.90;;;0.62;69.25;101794.94;2570181;30;137867;-41
2022/04/03 00:50:20;;;;;;;;;;;2.40;99.90;;;0.58;70.37;101801.53;2569199;30;138932;-43
2022/04/03 00:52:48;;;;;;;;;;;2.40;99.90;;;0.50;70.77;101799.47;2570172;30;137675;-43
2022/04/03 00:55:16;;;;;;;;;;;2.30;99.90;;;0.41;72.28;101803.72;2569589;30;138354;-44
2022/04/03 00:57:44;;;;;;;;;;;2.30;99.90;;;0.38;72.60;101800.41;2570475;30;137357;-46
2022/04/03 01:00:12;;;;;;;;;;;2.20;99.90;;;0.31;73.12;101794.72;2567776;30;139002;-42
2022/04/03 01:02:41;;;;;;;;;;;2.10;99.90;;;0.25;73.83;101797.84;2570303;30;137309;-44
2022/04/03 01:05:09;;;;;;;;;;;2.10;99.90;;;0.24;73.83;101794.31;2569786;30;138398;-42
2022/04/03 01:07:37;;;;;;;;;;;2.10;99.90;;;0.25;72.58;101798.72;2569583;30;136603;-44
2022/04/03 01:10:05;;;;;;;;;;;2.00;99.90;;;0.26;72.37;101796.88;2570325;30;137031;-44
2022/04/03 01:12:32;;;;;;;;;;;2.00;99.90;;;0.25;72.53;101787.13;2569573;30;137864;-46
2022/04/03 01:15:17;;;;;;;;;;;2.00;99.90;;;0.21;72.39;101797.25;2568745;30;139142;-42
2022/04/03 01:17:45;;;;;;;;;;;2.00;99.90;;;0.24;72.45;101796.16;2571004;30;136963;-44
2022/04/03 01:20:13;;;;;;;;;;;2.00;99.90;;;0.28;74.98;101794.94;2570695;30;138204;-42
2022/04/03 01:22:40;;;;;;;;;;;2.10;99.90;;;0.21;76.13;101791.88;2568403;30;137176;-42
2022/04/03 01:25:10;;;;;;;;;;;2.00;99.90;;;0.08;77.09;101791.13;2566866;30;138244;-42
2022/04/03 01:30:26;;;;;;;;;;;1.90;99.90;;;-0.11;79.64;101795.25;2566030;30;154866;-40
2022/04/03 01:32:53;;;;;;;;;;;1.80;99.90;;;-0.18;80.61;101789.50;2568738;30;138084;-40
2022/04/03 01:35:22;;;;;;;;;;;1.70;99.90;;;-0.29;81.61;101789.47;2567784;30;136725;-39
2022/04/03 01:37:51;;;;;;;;;;;1.60;99.90;;;-0.37;81.52;101786.50;2569644;30;138154;-40
2022/04/03 01:40:18;;;;;;;;;;;1.50;99.90;;;-0.47;81.87;101787.22;2568004;30;137111;-40
2022/04/03 01:42:46;;;;;;;;;;;1.50;99.90;;;-0.53;81.41;101786.81;2567147;30;137205;-40
2022/04/03 01:45:13;;;;;;;;;;;1.30;99.90;;;-0.59;81.79;101780.97;2568850;30;137131;-40
2022/04/03 01:47:40;;;;;;;;;;;1.30;99.90;;;-0.64;82.40;101787.63;2568846;30;138263;-40
2022/04/03 01:50:08;;;;;;;;;;;1.20;99.90;;;-0.70;82.87;101790.78;2568360;30;136942;-40
2022/04/03 01:52:35;;;;;;;;;;;1.20;99.90;;;-0.78;83.87;101789.53;2569105;30;138576;-39
2022/04/03 01:55:04;;;;;;;;;;;1.10;99.90;;;-0.86;84.00;101791.91;2567334;30;136793;-40
2022/04/03 01:57:32;;;;;;;;;;;1.00;99.90;;;-0.92;84.30;101792.38;2568380;30;137057;-40
2022/04/03 01:59:59;;;;;;;;;;;0.90;99.90;;;-0.94;84.34;101786.28;2568483;30;136952;-40
2022/04/03 02:02:27;;;;;;;;;;;0.90;99.90;;;-0.97;83.65;101783.81;2569296;30;138528;-40
2022/04/03 02:04:55;;;;;;;;;;;0.90;99.90;;;-1.01;84.07;101791.22;2568892;30;137280;-41
2022/04/03 02:07:22;;;;;;;;;;;0.80;99.90;;;-1.07;85.82;101789.00;2568771;30;139080;-40
2022/04/03 02:09:50;;;;;;;;;;;0.80;99.90;;;-1.12;86.65;101792.00;2568110;30;136973;-40
2022/04/03 02:12:17;;;;;;;;;;;0.70;99.90;;;-1.14;87.57;101787.75;2569565;30;137420;-40
2022/04/03 02:14:45;;;;;;;;;;;0.70;99.90;;;-1.20;88.55;101786.34;2567745;30;137225;-39
2022/04/03 02:17:12;;;;;;;;;;;0.70;99.90;;;-1.23;88.88;101791.94;2567341;30;138531;-40
2022/04/03 02:19:39;;;;;;;;;;;0.60;99.90;;;-1.26;89.52;101795.69;2566911;30;137014;-40
2022/04/03 02:22:08;;;;;;;;;;;0.60;99.90;;;-1.29;90.07;101790.56;2568653;30;138175;-39
2022/04/03 02:24:35;;;;;;;;;;;0.60;99.90;;;-1.35;90.77;101791.84;2568372;30;137089;-40
2022/04/03 02:27:02;;;;;;;;;;;0.50;99.90;;;-1.32;91.02;101788.97;2568392;30;136949;-39
2022/04/03 02:29:30;;;;;;;;;;;0.50;99.90;;;-1.32;91.42;101796.13;2568881;30;136902;-40
2022/04/03 02:31:58;;;;;;;;;;;0.50;99.90;;;-1.35;91.68;101802.56;2568707;30;137343;-39
2022/04/03 02:34:27;;;;;;;;;;;0.50;99.90;;;-1.39;91.98;101794.88;2569815;30;137058;-40
2022/04/03 02:36:55;;;;;;;;;;;0.50;99.90;;;-1.41;92.38;101792.28;2567957;30;138285;-40
2022/04/03 02:39:22;;;;;;;;;;;0.50;99.90;;;-1.45;92.74;101797.03;2567123;30;137343;-40
2022/04/03 02:41:49;;;;;;;;;;;0.40;99.90;;;-1.43;91.40;101796.06;2567333;30;137007;-40
2022/04/03 02:44:18;;;;;;;;;;;0.40;99.90;;;-1.41;90.49;101794.97;2568636;30;137781;-39
2022/04/03 02:46:46;;;;;;;;;;;0.40;99.90;;;-1.42;89.79;101787.91;2568860;30;138537;-39
2022/04/03 02:49:13;;;;;;;;;;;0.50;99.90;;;-1.39;89.83;101795.72;2569781;30;137109;-40
2022/04/03 02:51:40;;;;;;;;;;;0.50;99.90;;;-1.43;89.78;101788.03;2567770;30;137413;-39
2022/04/03 02:54:08;;;;;;;;;;;0.50;99.90;;;-1.41;89.42;101792.28;2568602;30;137185;-40
2022/04/03 02:56:35;;;;;;;;;;;0.50;99.90;;;-1.34;88.63;101795.38;2569573;30;138388;-40
2022/04/03 02:59:02;;;;;;;;;;;0.50;99.90;;;-1.36;89.50;101792.81;2569220;30;136980;-40
2022/04/03 03:01:30;;;;;;;;;;;0.50;99.90;;;-1.41;90.10;101788.78;2568900;30;137079;-40
2022/04/03 03:03:57;;;;;;;;;;;0.50;99.90;;;-1.49;91.15;101784.81;2568118;30;137239;-40
2022/04/03 03:06:24;;;;;;;;;;;0.40;99.90;;;-1.55;91.66;101789.75;2568381;30;138265;-40
2022/04/03 03:08:52;;;;;;;;;;;0.40;99.90;;;-1.58;92.01;101790.81;2568720;30;136946;-40
2022/04/03 03:11:19;;;;;;;;;;;0.30;99.90;;;-1.64;92.42;101792.09;2567776;30;139158;-40
2022/04/03 03:13:46;;;;;;;;;;;0.30;99.90;;;-1.75;92.59;101792.03;2566227;30;137501;-40
2022/04/03 03:16:14;;;;;;;;;;;0.20;99.90;;;-1.77;92.50;101785.91;2569100;30;138205;-40
2022/04/03 03:18:42;;;;;;;;;;;0.20;99.90;;;-1.76;93.46;101790.31;2568790;30;139007;-39
2022/04/03 03:21:09;;;;;;;;;;;0.10;99.90;;;-1.85;93.54;101799.00;2567680;30;138598;-40
2022/04/03 03:23:36;;;;;;;;;;;0.10;99.90;;;-1.94;94.15;101790.63;2568752;30;137849;-40
2022/04/03 03:26:04;;;;;;;;;;;0.00;99.90;;;-2.00;94.42;101795.53;2567825;30;138074;-40
2022/04/03 03:28:32;;;;;;;;;;;0.00;99.90;;;-2.09;94.65;101795.22;2567494;30;137271;-40
2022/04/03 03:31:00;;;;;;;;;;;-0.10;99.90;;;-2.15;94.53;101794.78;2567471;30;138241;-40
2022/04/03 03:33:28;;;;;;;;;;;-0.20;99.90;;;-2.20;95.05;101795.09;2569279;30;137062;-40
2022/04/03 03:35:55;;;;;;;;;;;-0.20;99.90;;;-2.27;95.19;101799.13;2568482;30;138525;-40
2022/04/03 03:38:23;;;;;;;;;;;-0.30;99.90;;;-2.38;95.85;101798.06;2568389;30;138091;-39
2022/04/03 03:40:50;;;;;;;;;;;-0.40;99.90;;;-2.46;95.86;101803.91;2565585;30;137208;-39
2022/04/03 03:43:17;;;;;;;;;;;-0.50;99.90;;;-2.51;96.23;101803.38;2568510;30;137149;-41
2022/04/03 03:45:45;;;;;;;;;;;-0.50;99.90;;;-2.56;96.57;101796.63;2569155;30;138107;-40
2022/04/03 03:48:12;;;;;;;;;;;-0.60;99.90;;;-2.65;96.50;101804.28;2567641;30;137228;-40
2022/04/03 03:50:40;;;;;;;;;;;-0.60;99.90;;;-2.72;96.90;101810.13;2567757;30;138132;-39
2022/04/03 03:53:07;;;;;;;;;;;-0.70;99.90;;;-2.77;97.37;101805.97;2569058;30;136943;-40
2022/04/03 03:55:35;;;;;;;;;;;-0.70;99.90;;;-2.77;97.50;101805.13;2568141;30;137264;-40
2022/04/03 03:58:03;;;;;;;;;;;-0.80;99.90;;;-2.81;97.96;101804.47;2567696;30;136761;-39
2022/04/03 04:00:31;;;;;;;;;;;-0.80;99.90;;;-2.87;97.78;101807.53;2567857;30;137011;-40
2022/04/03 04:02:59;;;;;;;;;;;-0.90;99.90;;;-2.92;98.20;101810.50;2567192;30;137199;-39
2022/04/03 04:05:26;;;;;;;;;;;-0.90;99.90;;;-2.97;98.25;101806.41;2567454;30;138420;-40
2022/04/03 04:07:53;;;;;;;;;;;-1.00;99.90;;;-3.06;98.29;101811.41;2568229;30;136916;-39
2022/04/03 04:10:22;;;;;;;;;;;-1.00;99.90;;;-3.08;98.46;101812.44;2568247;30;138262;-40
2022/04/03 04:12:50;;;;;;;;;;;-1.10;99.90;;;-3.13;98.62;101814.56;2568127;30;137884;-39
2022/04/03 04:15:18;;;;;;;;;;;-1.10;99.90;;;-3.16;99.04;101817.41;2567711;30;138576;-40
2022/04/03 04:17:47;;;;;;;;;;;-1.10;99.90;;;-3.21;99.05;101818.56;2568953;30;137174;-40
2022/04/03 04:20:16;;;;;;;;;;;-1.20;99.90;;;-3.25;99.20;101825.06;2566708;30;138230;-40
2022/04/03 04:22:46;;;;;;;;;;;-1.30;99.90;;;-3.29;99.31;101817.34;2567043;30;137046;-39
2022/04/03 04:25:16;;;;;;;;;;;-1.30;99.90;;;-3.35;99.17;101824.78;2568743;30;138246;-40
2022/04/03 04:27:45;;;;;;;;;;;-1.30;99.90;;;-3.38;99.28;101822.31;2568360;30;137051;-40
2022/04/03 04:30:14;;;;;;;;;;;-1.30;99.90;;;-3.41;99.61;101830.53;2568959;30;138334;-39
2022/04/03 04:32:42;;;;;;;;;;;-1.40;99.90;;;-3.41;99.99;101829.66;2566751;30;137082;-39
2022/04/03 04:35:10;;;;;;;;;;;-1.40;99.90;;;-3.41;100.00;101835.00;2567709;30;138450;-39
2022/04/03 04:37:37;;;;;;;;;;;-1.40;99.90;;;-3.41;100.00;101833.19;2567634;30;136577;-40
2022/04/03 04:40:05;;;;;;;;;;;-1.40;99.90;;;-3.46;100.00;101827.25;2568115;30;138733;-40
2022/04/03 04:42:33;;;;;;;;;;;-1.40;99.90;;;-3.47;100.00;101830.88;2567909;30;136629;-39
2022/04/03 04:45:01;;;;;;;;;;;-1.40;99.90;;;-3.51;100.00;101840.03;2567702;30;139177;-40
2022/04/03 04:47:32;;;;;;;;;;;-1.50;99.90;;;-3.50;100.00;101839.09;2568177;30;137282;-40
2022/04/03 04:50:00;;;;;;;;;;;-1.50;99.90;;;-3.57;100.00;101841.31;2568067;30;137845;-39
2022/04/03 04:52:28;;;;;;;;;;;-1.50;99.90;;;-3.63;100.00;101842.53;2566354;30;137058;-40
2022/04/03 04:54:56;;;;;;;;;;;-1.60;99.90;;;-3.66;100.00;101840.06;2569010;30;139127;-39
2022/04/03 04:57:23;;;;;;;;;;;-1.60;99.90;;;-3.69;100.00;101847.38;2568880;30;137213;-40
2022/04/03 04:59:51;;;;;;;;;;;-1.70;99.90;;;-3.70;100.00;101849.19;2568778;30;138448;-40
2022/04/03 05:02:18;;;;;;;;;;;-1.70;99.90;;;-3.72;100.00;101847.56;2568535;30;137360;-40
2022/04/03 05:04:45;;;;;;;;;;;-1.70;99.90;;;-3.75;100.00;101845.94;2567654;30;139426;-40
2022/04/03 05:07:13;;;;;;;;;;;-1.70;99.90;;;-3.77;100.00;101854.03;2570904;30;136957;-39
2022/04/03 05:09:41;;;;;;;;;;;-1.70;99.90;;;-3.81;100.00;101863.19;2567802;30;137209;-40
2022/04/03 05:12:09;;;;;;;;;;;-1.80;99.90;;;-3.88;100.00;101868.97;2567290;30;136808;-40
2022/04/03 05:14:37;;;;;;;;;;;-1.80;99.90;;;-3.88;100.00;101868.97;2569910;30;138336;-40
2022/04/03 05:17:05;;;;;;;;;;;-1.80;99.90;;;-3.92;100.00;101865.63;2568810;30;137167;-39
2022/04/03 05:19:34;;;;;;;;;;;-1.90;99.90;;;-3.87;100.00;101876.03;2569910;30;138374;-39
2022/04/03 05:22:02;;;;;;;;;;;-1.90;99.90;;;-3.88;100.00;101879.66;2568990;30;137431;-40
2022/04/03 05:24:29;;;;;;;;;;;-1.80;99.90;;;-3.83;100.00;101875.75;2569107;30;138288;-39
2022/04/03 05:26:56;;;;;;;;;;;-1.80;99.90;;;-3.81;100.00;101881.84;2569766;30;136832;-40
2022/04/03 05:29:24;;;;;;;;;;;-1.80;99.90;;;-3.79;100.00;101882.63;2569360;30;137089;-39
2022/04/03 05:31:51;;;;;;;;;;;-1.80;99.90;;;-3.79;100.00;101890.63;2568096;30;137314;-40
2022/04/03 05:34:19;;;;;;;;;;;-1.80;99.90;;;-3.80;100.00;101885.38;2568882;30;138377;-39
2022/04/03 05:36:46;;;;;;;;;;;-1.80;99.90;;;-3.81;100.00;101889.84;2570429;30;137959;-39
2022/04/03 05:39:13;;;;;;;;;;;-1.80;99.90;;;-3.77;100.00;101888.72;2570795;30;138426;-40
2022/04/03 05:41:41;;;;;;;;;;;-1.80;99.90;;;-3.75;100.00;101885.94;2569814;30;137086;-41
2022/04/03 05:44:09;;;;;;;;;;;-1.80;99.90;;;-3.71;100.00;101895.50;2569897;30;138246;-40
2022/04/03 05:46:36;;;;;;;;;;;-1.80;99.90;;;-3.67;100.00;101894.34;2569090;30;137117;-39
2022/04/03 05:49:03;;;;;;;;;;;-1.70;99.90;;;-3.59;100.00;101898.38;2569633;30;138258;-40
2022/04/03 05:51:31;;;;;;;;;;;-1.70;99.90;;;-3.55;100.00;101903.44;2569630;30;137072;-40
2022/04/03 05:53:59;;;;;;;;;;;-1.60;99.90;;;-3.52;100.00;101899.69;2569303;30;138458;-40
2022/04/03 05:56:27;;;;;;;;;;;-1.60;99.90;;;-3.48;100.00;101903.88;2569486;30;137090;-39
2022/04/03 05:58:54;;;;;;;;;;;-1.60;99.90;;;-3.45;100.00;101909.03;2568301;30;139834;-39
2022/04/03 06:01:22;;;;;;;;;;;-1.50;99.90;;;-3.43;100.00;101904.50;2568987;30;137978;-40
2022/04/03 06:03:53;;;;;;;;;;;-1.50;99.90;;;-3.43;100.00;101901.81;2570620;30;138436;-39
2022/04/03 06:06:20;;;;;;;;;;;-1.50;99.90;;;-3.33;100.00;101910.09;2568160;30;136764;-40
2022/04/03 06:08:47;;;;;;;;;;;-1.50;99.90;;;-3.27;99.60;101908.84;2570094;30;138557;-39
2022/04/03 06:11:15;;;;;;;;;;;-1.40;99.90;;;-3.08;99.40;101906.78;2569870;30;136979;-40
2022/04/03 06:13:42;;;;;;;;;;;-1.30;99.90;;;-2.97;99.50;101915.91;2569944;30;139248;-41
2022/04/03 06:16:10;;;;;;;;;;;-1.10;99.90;;;-2.88;99.47;101912.66;2569944;30;137239;-39
2022/04/03 06:18:37;;;;;;;;;;;-1.10;99.90;;;-2.78;99.43;101908.44;2567489;30;138573;-40
2022/04/03 06:21:05;;;;;;;;;;;-1.00;99.90;;;-2.65;99.09;101908.50;2568362;30;137226;-39
2022/04/03 06:23:33;;;;;;;;;;;-0.90;99.90;;;-2.52;98.26;101913.91;2567082;30;137694;-39
2022/04/03 06:26:02;;;;;;;;;;;-0.80;99.90;;;-2.37;97.36;101905.88;2567795;30;137892;-39
2022/04/03 06:28:29;;;;;;;;;;;-0.60;99.90;;;-2.26;96.86;101908.66;2568211;30;138605;-40
2022/04/03 06:30:57;;;;;;;;;;;-0.50;99.90;;;-2.15;96.23;101915.09;2568328;30;137392;-40
2022/04/03 06:33:25;;;;;;;;;;;-0.40;99.90;;;-2.03;95.79;101915.16;2569329;30;137174;-40
2022/04/03 06:35:52;;;;;;;;;;;-0.30;99.90;;;-1.91;95.06;101917.97;2568809;30;138069;-40
2022/04/03 06:38:20;;;;;;;;;;;-0.20;99.90;;;-1.76;94.86;101916.06;2568781;30;138224;-41
2022/04/03 06:40:50;;;;;;;;;;;-0.10;99.90;;;-1.58;94.34;101915.78;2568102;30;137909;-39
2022/04/03 06:43:23;;;;;;;;;;;0.10;99.90;;;-1.44;93.46;101921.03;2569004;30;138368;-40
2022/04/03 06:45:52;;;;;;;;;;;0.20;99.90;;;-1.30;92.69;101930.75;2568468;30;137132;-41
2022/04/03 06:48:20;;;;;;;;;;;0.30;99.90;;;-1.10;91.81;101923.16;2569558;30;138348;-40
2022/04/03 06:50:48;;;;;;;;;;;0.50;99.90;;;-0.98;90.80;101930.31;2565441;38;137100;-40
2022/04/03 06:53:16;;;;;;;;;;;0.70;99.90;;;-0.90;89.85;101919.91;2570064;30;138493;-40
2022/04/03 06:55:43;;;;;;;;;;;0.70;99.90;;;-0.75;90.10;101919.75;2565571;30;137518;-40
2022/04/03 06:58:11;;;;;;;;;;;0.80;99.90;;;-0.63;89.80;101923.38;2568432;30;138370;-41
2022/04/03 07:00:40;;;;;;;;;;;0.90;99.90;;;-0.46;87.31;101920.31;2569581;30;137019;-40
2022/04/03 07:03:07;;;;;;;;;;;1.10;99.90;;;-0.24;86.25;101924.09;2568944;30;138258;-41
2022/04/03 07:05:35;;;;;;;;;;;1.30;99.90;;;-0.04;84.80;101927.09;2568065;30;137066;-40
2022/04/03 07:08:02;;;;;;;;;;;1.40;99.90;;;0.14;85.00;101919.50;2568447;30;139122;-40
2022/04/03 07:10:30;;;;;;;;;;;1.60;99.90;;;0.30;82.48;101919.19;2565858;30;136629;-41
2022/04/03 07:12:59;;;;;;;;;;;1.80;99.90;;;0.50;81.10;101927.50;2566986;30;137432;-41
2022/04/03 07:15:27;;;;;;;;;;;1.90;99.90;;;0.70;81.38;101932.19;2569185;30;136603;-40
2022/04/03 07:17:54;;;;;;;;;;;2.10;99.90;;;0.89;79.55;101922.69;2568435;30;137978;-40
2022/04/03 07:20:22;;;;;;;;;;;2.30;99.90;;;1.09;79.35;101926.44;2568160;30;138009;-40
2022/04/03 07:22:49;;;;;;;;;;;2.50;99.90;;;1.21;76.48;101932.69;2568974;30;137983;-40
2022/04/03 07:25:21;;;;;;;;;;;2.70;99.90;;;1.41;75.21;101930.22;2568127;30;137793;-40
2022/04/03 07:27:48;;;;;;;;;;;2.80;99.90;;;1.63;75.96;101929.31;2567939;30;139049;-40
2022/04/03 07:30:16;;;;;;;;;;;3.00;99.90;;;1.68;74.45;101921.69;2583174;30;138163;-42
2022/04/03 07:32:43;;;;;;;;;;;3.20;99.90;;;1.79;72.91;101925.34;2567472;30;139382;-41
2022/04/03 07:35:11;;;;;;;;;;;3.30;99.90;;;1.95;72.57;101927.63;2568947;30;137848;-42
2022/04/03 07:37:39;;;;;;;;;;;3.40;99.90;;;2.08;71.92;101922.91;2571690;30;137024;-41
2022/04/03 07:40:08;;;;;;;;;;;3.50;99.90;;;2.05;69.71;101922.31;2569622;30;136982;-41
2022/04/03 07:42:36;;;;;;;;;;;3.60;99.90;;;2.26;70.14;101925.88;2569075;30;137812;-41
2022/04/03 07:45:04;;;;;;;;;;;3.70;99.90;;;2.42;69.87;101928.13;2567509;30;137071;-41
2022/04/03 07:47:33;;;;;;;;;;;3.80;99.90;;;2.49;67.62;101932.97;2568767;30;139154;-41
2022/04/03 07:50:04;;;;;;;;;;;3.90;99.90;;;2.56;69.03;101931.44;2568461;30;136972;-41
2022/04/03 07:52:32;;;;;;;;;;;4.00;99.90;;;2.75;69.63;101935.25;2571080;30;137369;-41
2022/04/03 07:55:00;;;;;;;;;;;4.20;99.90;;;2.75;65.98;101935.25;2569917;30;137041;-41
2022/04/03 07:57:27;;;;;;;;;;;4.20;99.90;;;2.82;67.16;101942.69;2570750;30;138900;-41
2022/04/03 07:59:55;;;;;;;;;;;4.30;99.90;;;2.97;66.98;101948.56;2570251;30;138216;-41
2022/04/03 08:02:22;;;;;;;;;;;4.40;99.90;;;3.06;67.54;101951.44;2568779;30;137167;-41
2022/04/03 08:04:50;;;;;;;;;;;4.50;99.90;;;3.05;67.33;101953.28;2569683;30;137431;-41
2022/04/03 08:07:17;;;;;;;;;;;4.50;99.90;;;3.06;66.87;101952.31;2569575;30;139136;-42
2022/04/03 08:09:44;;;;;;;;;;;4.50;99.90;;;3.25;67.66;101954.22;2571899;30;137173;-42
2022/04/03 08:12:12;;;;;;;;;;;4.70;99.90;;;3.42;65.51;101951.84;2568155;30;138511;-41
2022/04/03 08:14:39;;;;;;;;;;;4.80;99.90;;;3.63;66.34;101959.88;2570076;30;138216;-41
2022/04/03 08:17:07;;;;;;;;;;;4.90;99.90;;;3.77;63.77;101964.00;2569957;30;138591;-41
2022/04/03 08:19:34;;;;;;;;;;;5.10;99.90;;;3.95;62.20;101966.00;2565974;30;137957;-41
2022/04/03 08:22:02;;;;;;;;;;;5.20;99.90;;;4.07;61.43;101964.91;2569707;30;138523;-42
2022/04/03 08:24:29;;;;;;;;;;;5.40;99.90;;;4.18;61.10;101967.44;2570520;30;136893;-41
2022/04/03 08:26:56;;;;;;;;;;;5.50;99.90;;;4.24;58.73;101959.75;2569883;30;137138;-41
2022/04/03 08:29:24;;;;;;;;;;;5.60;98.50;;;4.33;57.78;101964.31;2567511;30;137796;-41
2022/04/03 08:31:51;;;;;;;;;;;5.70;97.90;;;4.24;57.39;101962.47;2568525;30;137380;-41
2022/04/03 08:34:18;;;;;;;;;;;5.70;96.90;;;4.34;57.47;101965.16;2568476;30;136935;-41
2022/04/03 08:37:06;;;;;;;;;;;5.80;97.30;;;4.48;56.00;101964.75;2569008;30;138598;-41
2022/04/03 08:39:34;;;;;;;;;;;5.90;96.00;;;4.61;57.01;101959.88;2569915;30;137714;-41
2022/04/03 08:42:01;;;;;;;;;;;6.00;96.80;;;4.66;55.35;101959.44;2566584;30;139328;-41
2022/04/03 08:44:29;;;;;;;;;;;6.10;95.60;;;4.78;56.67;101953.88;2570403;30;137182;-42
2022/04/03 08:46:58;;;;;;;;;;;6.20;96.40;;;4.93;56.07;101963.22;2570861;30;138307;-41
2022/04/03 08:49:29;;;;;;;;;;;6.30;96.10;;;5.01;56.33;101957.91;2569762;30;136797;-41
2022/04/03 08:51:58;;;;;;;;;;;6.40;95.90;;;5.09;54.68;101954.47;2569406;30;138429;-41
2022/04/03 08:54:26;;;;;;;;;;;6.50;94.80;;;4.97;53.82;101966.47;2567935;30;137332;-39
2022/04/03 08:56:54;;;;;;;;;;;6.50;93.70;;;5.24;53.27;101954.00;2567556;30;137827;-41
2022/04/03 08:59:21;;;;;;;;;;;6.60;93.50;;;5.33;53.06;101956.66;2571863;30;137519;-41
2022/04/03 09:01:50;;;;;;;;;;;6.70;93.50;;;5.70;53.93;101960.31;2569976;30;138198;-41
2022/04/03 09:04:20;;;;;;;;;;;6.90;94.50;;;5.93;52.03;101961.72;2568803;30;136907;-41
2022/04/03 09:06:59;;;;;;;;;;;7.10;92.80;;;5.87;48.53;101966.75;2570635;30;138265;-41
2022/04/03 09:09:27;;;;;;;;;;;7.20;91.20;;;5.95;51.52;101965.94;2569981;30;137879;-41
2022/04/03 09:12:07;;;;;;;;;;;7.30;92.00;;;6.01;50.16;101959.09;2568296;30;138125;-41
2022/04/03 09:14:35;;;;;;;;;;;7.40;92.00;;;5.92;48.79;101966.25;2569515;30;137260;-41
2022/04/03 09:17:03;;;;;;;;;;;7.30;89.80;;;5.89;51.66;101967.44;2569564;30;139306;-39
2022/04/03 09:19:34;;;;;;;;;;;7.30;91.40;;;5.97;49.22;101963.09;2569764;30;137342;-41
2022/04/03 09:22:02;;;;;;;;;;;7.30;90.20;;;5.94;51.95;101968.81;2570383;30;138447;-41
2022/04/03 09:24:29;;;;;;;;;;;7.30;91.70;;;5.95;50.92;101970.53;2569899;30;136941;-41
2022/04/03 09:26:59;;;;;;;;;;;7.40;91.00;;;5.90;51.19;101966.44;2570238;30;139032;-40
2022/04/03 09:29:26;;;;;;;;;;;7.40;90.80;;;5.78;51.23;101964.94;2570590;30;137295;-41
2022/04/03 09:32:01;;;;;;;;;;;7.30;90.40;;;5.73;52.20;101970.81;2569022;30;139894;-40
2022/04/03 09:34:29;;;;;;;;;;;7.30;91.10;;;5.43;52.10;101967.41;2568396;30;136870;-41
2022/04/03 09:36:59;;;;;;;;;;;7.10;90.60;;;5.43;51.80;101975.53;2567523;30;139299;-41
2022/04/03 09:39:29;;;;;;;;;;;7.00;91.00;;;5.47;51.95;101968.84;2568029;30;137044;-39
2022/04/03 09:42:03;;;;;;;;;;;7.00;90.70;;;5.41;52.43;101968.56;2566790;30;137429;-41
2022/04/03 09:44:36;;;;;;;;;;;6.90;91.00;;;5.37;53.33;101972.59;2569484;30;136933;-41
2022/04/03 09:47:22;;;;;;;;;;;6.90;91.80;;;5.27;51.69;101976.19;2569812;30;137249;-41
2022/04/03 09:49:58;;;;;;;;;;;6.80;90.60;;;5.28;53.97;101969.75;2570813;30;137395;-41
2022/04/03 09:52:35;;;;;;;;;;;6.80;92.00;;;5.23;52.85;101972.06;2569578;30;138317;-41
2022/04/03 09:55:17;;;;;;;;;;;6.70;92.10;;;4.99;54.97;101965.31;2569952;30;138004;-41
2022/04/03 09:57:46;;;;;;;;;;;6.60;92.00;;;5.07;53.76;101969.16;2569513;30;139082;-40
2022/04/03 10:00:38;;;;;;;;;;;6.60;92.20;;;5.21;55.72;101968.66;2570488;30;137032;-41
2022/04/03 10:03:05;;;;;;;;;;;6.60;93.30;;;5.28;54.06;101967.06;2567977;30;137740;-40
2022/04/03 10:05:36;;;;;;;;;;;6.70;92.20;;;5.32;53.62;101963.06;2569003;30;137015;-41
2022/04/03 10:08:05;;;;;;;;;;;6.70;91.90;;;5.23;50.69;101966.66;2570094;30;137350;-41
2022/04/03 10:10:35;;;;;;;;;;;6.70;89.90;;;5.30;51.40;101966.91;2569287;30;136842;-40
2022/04/03 10:13:04;;;;;;;;;;;6.70;90.60;;;5.38;51.04;101966.19;2568561;30;138345;-41
2022/04/03 10:15:32;;;;;;;;;;;6.70;90.30;;;5.36;51.16;101962.78;2569451;30;137003;-39
2022/04/03 10:18:01;;;;;;;;;;;6.70;90.10;;;5.47;50.30;101959.84;2572081;30;138104;-41
2022/04/03 10:20:29;;;;;;;;;;;6.90;89.60;;;5.59;52.44;101957.78;2567967;30;137240;-40
2022/04/03 10:23:07;;;;;;;;;;;6.90;91.10;;;5.55;49.86;101948.28;2569252;30;138574;-40
2022/04/03 10:25:47;;;;;;;;;;;6.90;89.10;;;5.66;51.40;101956.16;2570056;30;138088;-39
2022/04/03 10:28:18;;;;;;;;;;;7.00;90.40;;;5.68;54.68;101956.88;2571344;30;138406;-41
2022/04/03 10:31:00;;;;;;;;;;;7.10;91.70;;;5.82;51.04;101950.06;2570177;30;137317;-41
2022/04/03 10:33:37;;;;;;;;;;;7.20;90.10;;;5.94;50.84;101948.00;2569801;30;137846;-41
2022/04/03 10:36:06;;;;;;;;;;;7.20;90.40;;;6.02;52.91;101955.38;2569381;30;137017;-40
2022/04/03 10:38:44;;;;;;;;;;;7.30;91.60;;;6.02;51.39;101953.53;2569332;30;139028;-41
2022/04/03 10:41:34;;;;;;;;;;;7.40;90.60;;;5.72;50.86;101946.59;2569297;30;136908;-40
2022/04/03 10:44:11;;;;;;;;;;;7.30;88.10;;;5.71;51.02;101947.59;2568574;30;138351;-41
2022/04/03 10:47:02;;;;;;;;;;;7.20;89.80;;;6.00;53.14;101938.41;2569714;30;137853;-41
2022/04/03 10:49:30;;;;;;;;;;;7.30;92.60;;;6.14;50.05;101937.91;2570324;30;138231;-40
2022/04/03 10:52:22;;;;;;;;;;;7.50;89.50;;;6.21;53.66;101931.84;2569040;30;136740;-40
2022/04/03 10:54:52;;;;;;;;;;;7.60;90.50;;;6.38;49.56;101927.41;2570054;30;138951;-40
2022/04/03 10:57:42;;;;;;;;;;;7.70;88.50;;;6.58;49.83;101922.63;2571309;30;137253;-41
2022/04/03 11:00:12;;;;;;;;;;;7.80;89.20;;;6.75;50.33;101919.03;2570977;30;138404;-41
2022/04/03 11:02:42;;;;;;;;;;;8.00;90.00;;;6.89;48.94;101919.44;2570454;30;137341;-41
2022/04/03 11:05:22;;;;;;;;;;;8.20;87.80;;;7.01;48.45;101917.28;2569035;30;138407;-40
2022/04/03 11:07:53;;;;;;;;;;;8.30;87.70;;;6.91;51.30;101909.28;2570506;30;136651;-39
2022/04/03 11:10:42;;;;;;;;;;;8.20;90.60;;;7.03;50.92;101902.56;2568601;30;138192;-42
2022/04/03 11:13:10;;;;;;;;;;;8.30;90.30;;;7.41;52.16;101906.75;2570459;30;137945;-42
2022/04/03 11:15:46;;;;;;;;;;;8.60;91.50;;;7.60;48.57;101902.94;2569909;30;137498;-41
2022/04/03 11:18:32;;;;;;;;;;;8.80;89.30;;;7.55;50.09;101905.28;2571579;30;136871;-39
2022/04/03 11:21:13;;;;;;;;;;;8.80;89.80;;;7.43;50.27;101897.44;2570701;30;137908;-41